Time;durP1;ratioP1;P1;durP2;ratioP2;P2;SDS_P1;SDS_P2;PMS_P1;PMS_P2;Temp;Humidity;BMP_temperature;BMP_pressure;BME280_temperature;BME280_humidity;BME280_pressure;Samples;Min_cycle;Max_cycle;Signal;HPM_P1;HPM_P2
2023/09/21 00:01:07;;;;;;;4.20;1.73;;;;;;;23.57;100.00;99810.81;5008724;28;20074;-45
2023/09/21 00:03:37;;;;;;;4.32;1.67;;;;;;;23.59;100.00;99808.22;5013405;28;20045;-47
2023/09/21 00:06:05;;;;;;;4.22;1.70;;;;;;;23.57;100.00;99803.06;5008879;28;20054;-44
2023/09/21 00:08:32;;;;;;;5.10;1.80;;;;;;;23.58;100.00;99804.59;5013633;28;20140;-44
2023/09/21 00:10:59;;;;;;;4.45;1.98;;;;;;;23.57;100.00;99803.06;5016172;28;20052;-45
2023/09/21 00:13:28;;;;;;;4.82;1.58;;;;;;;23.59;100.00;99802.53;5012313;28;20120;-44
2023/09/21 00:16:00;;;;;;;2.60;1.48;;;;;;;23.55;100.00;99802.81;5014481;28;20053;-45
2023/09/21 00:18:29;;;;;;;5.35;2.55;;;;;;;23.56;100.00;99795.84;5009098;28;20056;-47
2023/09/21 00:20:57;;;;;;;2.70;1.58;;;;;;;23.57;100.00;99790.94;5009080;28;20147;-44
2023/09/21 00:23:25;;;;;;;3.75;1.65;;;;;;;23.55;100.00;99793.53;5012343;28;20105;-43
2023/09/21 00:26:00;;;;;;;2.80;1.60;;;;;;;23.57;100.00;99788.88;5008463;28;20084;-44
2023/09/21 00:28:28;;;;;;;4.22;1.80;;;;;;;23.52;100.00;99786.84;5009197;28;20046;-45
2023/09/21 00:30:57;;;;;;;2.95;1.60;;;;;;;23.51;100.00;99790.22;5007084;28;20118;-45
2023/09/21 00:33:25;;;;;;;2.30;1.30;;;;;;;23.55;100.00;99773.66;5017875;28;20128;-44
2023/09/21 00:35:52;;;;;;;4.55;1.70;;;;;;;23.55;100.00;99768.78;5008404;28;20057;-44
2023/09/21 00:38:20;;;;;;;4.60;2.10;;;;;;;23.55;100.00;99765.16;5009491;28;20079;-45
2023/09/21 00:40:48;;;;;;;4.93;1.65;;;;;;;23.56;100.00;99761.78;5008824;28;20054;-44
2023/09/21 00:43:24;;;;;;;3.78;1.63;;;;;;;23.53;100.00;99753.59;5008716;28;20556;-44
2023/09/21 00:45:57;;;;;;;3.13;1.58;;;;;;;23.54;100.00;99743.78;5016614;28;20096;-46
2023/09/21 00:48:33;;;;;;;3.65;1.77;;;;;;;23.52;100.00;99752.81;5008516;28;20076;-48
2023/09/21 00:51:05;;;;;;;3.85;1.75;;;;;;;23.53;100.00;99739.41;5022105;28;20165;-43
2023/09/21 00:53:33;;;;;;;3.75;1.60;;;;;;;23.57;100.00;99737.81;5027843;28;20427;-44
2023/09/21 00:56:09;;;;;;;10.15;1.98;;;;;;;23.53;100.00;99730.91;5013891;28;20053;-47
2023/09/21 00:58:49;;;;;;;4.63;1.92;;;;;;;23.56;100.00;99729.84;5010723;28;20046;-47
2023/09/21 01:01:21;;;;;;;3.50;1.88;;;;;;;23.52;100.00;99732.19;5008135;28;20052;-45
2023/09/21 01:03:50;;;;;;;4.78;1.70;;;;;;;23.56;100.00;99727.00;5009580;28;20049;-44
2023/09/21 01:06:18;;;;;;;3.20;1.67;;;;;;;23.54;100.00;99718.25;5019718;28;20045;-44
2023/09/21 01:08:44;;;;;;;3.15;1.80;;;;;;;23.54;100.00;99719.03;5015729;28;20057;-47
2023/09/21 01:11:14;;;;;;;5.25;2.15;;;;;;;23.55;100.00;99719.78;5016777;28;20068;-45
2023/09/21 01:13:41;;;;;;;3.88;1.67;;;;;;;23.56;100.00;99715.66;5010687;28;20046;-46
2023/09/21 01:16:11;;;;;;;3.70;1.75;;;;;;;23.52;100.00;99712.34;5021364;28;20729;-45
2023/09/21 01:18:41;;;;;;;4.15;1.60;;;;;;;23.53;100.00;99708.94;5015195;28;20057;-46
2023/09/21 01:21:10;;;;;;;6.75;1.88;;;;;;;23.53;100.00;99703.28;5012201;28;20096;-43
2023/09/21 01:23:45;;;;;;;2.30;1.45;;;;;;;23.53;100.00;99714.63;5013492;28;20088;-44
2023/09/21 01:26:16;;;;;;;5.35;1.70;;;;;;;23.50;100.00;99707.19;5015622;28;20064;-44
2023/09/21 01:28:47;;;;;;;5.32;2.00;;;;;;;23.52;100.00;99698.16;5014022;28;20053;-43
2023/09/21 01:31:15;;;;;;;2.40;1.70;;;;;;;23.55;100.00;99702.75;5012080;28;20045;-45
2023/09/21 01:33:42;;;;;;;4.05;1.58;;;;;;;23.56;100.00;99692.97;5019741;28;20046;-43
2023/09/21 01:36:12;;;;;;;5.00;1.90;;;;;;;23.67;100.00;99693.66;5016488;28;20443;-45
2023/09/21 01:38:44;;;;;;;3.60;1.60;;;;;;;23.61;100.00;99692.16;5015704;28;20134;-44
2023/09/21 01:41:17;;;;;;;5.22;1.80;;;;;;;23.63;100.00;99695.22;5012069;28;20092;-45
2023/09/21 01:43:44;;;;;;;2.70;1.60;;;;;;;23.59;100.00;99681.31;5014273;28;20104;-44
2023/09/21 01:46:12;;;;;;;6.10;1.85;;;;;;;23.57;100.00;99680.31;5015141;28;20046;-44
2023/09/21 01:48:39;;;;;;;4.20;1.67;;;;;;;23.57;100.00;99677.47;5015102;28;20065;-44
2023/09/21 01:51:06;;;;;;;3.08;1.70;;;;;;;23.55;100.00;99678.00;5011313;28;20180;-43
2023/09/21 01:53:33;;;;;;;2.78;1.70;;;;;;;23.56;100.00;99673.09;5011329;28;20157;-44
2023/09/21 01:55:59;;;;;;;3.67;1.65;;;;;;;23.54;100.00;99661.50;5011090;28;20080;-46
2023/09/21 01:58:26;;;;;;;5.85;1.65;;;;;;;23.58;100.00;99667.66;5012502;28;20474;-45
2023/09/21 02:00:53;;;;;;;4.68;1.67;;;;;;;23.58;100.00;99659.13;5010890;28;20081;-46
2023/09/21 02:03:23;;;;;;;6.15;1.98;;;;;;;23.59;100.00;99660.69;5012240;28;20134;-45
2023/09/21 02:05:50;;;;;;;4.43;1.70;;;;;;;23.57;100.00;99654.78;5018037;28;20077;-44
2023/09/21 02:08:17;;;;;;;3.80;1.70;;;;;;;23.56;100.00;99653.25;5016240;28;20050;-43
2023/09/21 02:10:50;;;;;;;4.45;1.50;;;;;;;23.59;100.00;99641.59;5011027;28;20548;-45
2023/09/21 02:13:17;;;;;;;2.95;1.73;;;;;;;23.55;100.00;99638.28;5017851;28;20057;-43
2023/09/21 02:15:44;;;;;;;2.72;1.60;;;;;;;23.57;100.00;99643.44;5017474;28;20115;-47
2023/09/21 02:18:11;;;;;;;2.63;1.45;;;;;;;23.52;100.00;99633.69;5004357;28;20050;-43
2023/09/21 02:20:44;;;;;;;3.53;1.50;;;;;;;23.57;100.00;99635.69;5009530;28;20081;-44
2023/09/21 02:23:12;;;;;;;3.55;1.58;;;;;;;23.55;100.00;99631.84;5009615;28;20046;-44
2023/09/21 02:25:40;;;;;;;5.45;1.83;;;;;;;23.55;100.00;99631.84;5010368;28;20593;-45
2023/09/21 02:28:11;;;;;;;2.83;1.60;;;;;;;23.53;100.00;99628.78;5018182;28;20129;-43
2023/09/21 02:30:44;;;;;;;3.40;1.90;;;;;;;23.55;100.00;99632.59;5014354;28;20061;-47
2023/09/21 02:33:12;;;;;;;3.33;1.55;;;;;;;23.54;100.00;99631.09;5018575;28;20863;-44
2023/09/21 02:35:41;;;;;;;4.10;2.13;;;;;;;23.54;100.00;99624.63;5009045;28;20116;-44
2023/09/21 02:38:09;;;;;;;3.53;1.52;;;;;;;23.53;100.00;99623.09;5010533;28;20050;-44
2023/09/21 02:40:36;;;;;;;2.30;1.60;;;;;;;23.53;100.00;99623.09;5011882;28;20057;-46
2023/09/21 02:43:03;;;;;;;4.07;1.90;;;;;;;23.50;100.00;99619.28;5014642;28;20056;-45
2023/09/21 02:45:30;;;;;;;3.90;1.75;;;;;;;23.52;100.00;99618.75;5017100;28;20029;-43
2023/09/21 02:48:01;;;;;;;2.67;1.70;;;;;;;23.53;100.00;99615.34;5010365;28;20120;-45
2023/09/21 02:50:29;;;;;;;2.92;1.33;;;;;;;23.50;100.00;99616.44;5016708;28;20045;-43
2023/09/21 02:52:57;;;;;;;4.57;1.88;;;;;;;23.51;100.00;99608.69;5010208;28;20092;-44
2023/09/21 02:55:26;;;;;;;3.50;1.63;;;;;;;23.49;100.00;99605.63;5009869;28;20076;-45
2023/09/21 02:57:58;;;;;;;3.78;1.80;;;;;;;23.51;100.00;99600.94;5010526;28;20108;-47
2023/09/21 03:00:26;;;;;;;2.75;1.45;;;;;;;23.51;100.00;99595.28;5012054;28;20104;-47
2023/09/21 03:02:55;;;;;;;4.03;1.75;;;;;;;23.49;100.00;99595.03;5012965;28;20141;-44
2023/09/21 03:05:27;;;;;;;3.28;1.35;;;;;;;23.52;100.00;99590.38;5009346;28;20042;-43
2023/09/21 03:07:54;;;;;;;3.63;1.60;;;;;;;23.51;100.00;99585.97;5018022;28;20050;-45
2023/09/21 03:10:22;;;;;;;4.30;1.73;;;;;;;23.50;100.00;99592.97;5011205;28;20782;-44
2023/09/21 03:12:49;;;;;;;3.08;1.70;;;;;;;23.50;100.00;99587.28;5010260;28;20526;-47
2023/09/21 03:15:18;;;;;;;3.75;1.80;;;;;;;23.48;100.00;99582.16;5010089;28;20038;-45
2023/09/21 03:17:45;;;;;;;4.88;1.95;;;;;;;23.48;100.00;99573.66;5015457;28;20055;-44
2023/09/21 03:20:28;;;;;;;4.40;1.90;;;;;;;23.47;100.00;99571.34;5010032;28;20050;-44
2023/09/21 03:22:58;;;;;;;4.20;1.70;;;;;;;23.45;100.00;99566.19;5009684;28;20108;-45
2023/09/21 03:25:27;;;;;;;4.63;1.92;;;;;;;23.46;100.00;99570.56;5015425;28;20050;-44
2023/09/21 03:27:57;;;;;;;4.35;1.52;;;;;;;23.47;100.00;99571.34;5017126;28;20054;-43
2023/09/21 03:30:24;;;;;;;4.65;1.70;;;;;;;23.44;100.00;99570.34;5009366;28;20054;-45
2023/09/21 03:32:51;;;;;;;3.38;1.65;;;;;;;23.46;100.00;99559.22;5009533;28;20123;-43
2023/09/21 03:35:18;;;;;;;3.17;1.65;;;;;;;23.46;100.00;99564.13;5012358;28;20047;-42
2023/09/21 03:37:48;;;;;;;3.60;1.52;;;;;;;23.46;100.00;99555.63;5010151;28;20115;-42
2023/09/21 03:40:15;;;;;;;5.43;1.92;;;;;;;23.45;100.00;99554.06;5010221;28;20516;-44
2023/09/21 03:42:41;;;;;;;4.55;1.70;;;;;;;23.42;100.00;99553.09;5007980;28;20084;-44
2023/09/21 03:45:09;;;;;;;3.97;1.60;;;;;;;23.44;100.00;99552.56;5001618;28;20053;-44
2023/09/21 03:47:35;;;;;;;3.97;1.75;;;;;;;23.41;100.00;99548.72;5010428;28;20081;-43
2023/09/21 03:50:03;;;;;;;3.85;1.70;;;;;;;23.42;100.00;99538.91;5015363;28;20419;-44
2023/09/21 03:52:30;;;;;;;3.20;1.80;;;;;;;23.44;100.00;99547.66;5010647;28;20096;-43
2023/09/21 03:54:56;;;;;;;4.00;2.53;;;;;;;23.42;100.00;99544.56;5016000;28;20495;-43
2023/09/21 03:57:23;;;;;;;4.93;1.85;;;;;;;23.43;100.00;99536.84;5013223;28;20073;-45
2023/09/21 03:59:49;;;;;;;3.47;1.70;;;;;;;23.44;100.00;99536.31;5009004;28;20053;-43
2023/09/21 04:02:17;;;;;;;2.67;1.60;;;;;;;23.44;100.00;99527.81;5009271;28;20057;-43
2023/09/21 04:04:44;;;;;;;5.75;1.80;;;;;;;23.45;100.00;99525.72;5010935;28;20042;-46
2023/09/21 04:07:15;;;;;;;4.38;1.45;;;;;;;23.45;100.00;99523.66;5009037;28;20049;-45
2023/09/21 04:09:42;;;;;;;2.80;1.50;;;;;;;23.45;100.00;99517.22;5011804;28;20053;-43
2023/09/21 04:12:09;;;;;;;2.97;1.52;;;;;;;23.45;100.00;99515.16;5011885;28;20147;-44
2023/09/21 04:14:35;;;;;;;2.85;1.48;;;;;;;23.44;100.00;99512.84;5008496;28;20277;-44
2023/09/21 04:17:02;;;;;;;3.28;1.60;;;;;;;23.45;100.00;99514.38;5012931;28;20121;-45
2023/09/21 04:19:29;;;;;;;4.65;1.63;;;;;;;23.45;100.00;99503.81;5015637;28;20153;-44
2023/09/21 04:21:55;;;;;;;4.47;1.60;;;;;;;23.46;100.00;99510.25;5008593;28;20412;-44
2023/09/21 04:24:22;;;;;;;4.30;2.00;;;;;;;23.45;100.00;99505.88;5008437;28;20042;-42
2023/09/21 04:26:49;;;;;;;3.47;1.77;;;;;;;23.45;100.00;99505.88;5015865;28;20687;-44
2023/09/21 04:29:15;;;;;;;5.68;2.15;;;;;;;23.44;100.00;99507.94;5008778;28;20045;-43
2023/09/21 04:31:42;;;;;;;3.75;1.50;;;;;;;23.43;100.00;99509.25;5008527;28;20116;-43
2023/09/21 04:34:10;;;;;;;3.33;1.70;;;;;;;23.42;100.00;99504.88;5010059;28;20137;-41
2023/09/21 04:36:36;;;;;;;5.13;1.77;;;;;;;23.42;100.00;99495.63;5008242;28;20093;-43
2023/09/21 04:39:03;;;;;;;3.92;1.80;;;;;;;23.43;100.00;99499.97;5019633;28;20081;-43
2023/09/21 04:41:30;;;;;;;3.10;1.63;;;;;;;23.43;100.00;99495.09;5014525;28;20109;-44
2023/09/21 04:43:56;;;;;;;3.33;1.80;;;;;;;23.44;100.00;99487.31;5012601;28;20538;-43
2023/09/21 04:46:23;;;;;;;4.32;1.42;;;;;;;23.43;100.00;99497.13;5015913;28;20066;-45
2023/09/21 04:48:50;;;;;;;5.95;2.00;;;;;;;23.41;100.00;99483.50;5019786;28;20516;-44
2023/09/21 04:51:17;;;;;;;4.65;1.85;;;;;;;23.40;100.00;99492.53;5012648;28;20072;-43
2023/09/21 04:53:45;;;;;;;2.63;1.35;;;;;;;23.41;100.00;99494.84;5012403;28;20124;-44
2023/09/21 04:56:12;;;;;;;3.53;1.90;;;;;;;23.43;100.00;99488.63;5013131;28;20469;-43
2023/09/21 04:58:38;;;;;;;3.30;1.88;;;;;;;23.41;100.00;99488.38;5012142;28;20065;-46
2023/09/21 05:01:10;;;;;;;2.78;1.65;;;;;;;23.41;100.00;99483.50;5012009;28;20108;-45
2023/09/21 05:03:37;;;;;;;7.05;2.22;;;;;;;23.42;100.00;99485.03;5017252;28;20516;-42
2023/09/21 05:06:05;;;;;;;5.90;2.05;;;;;;;23.40;100.00;99484.81;5017429;28;20567;-43
2023/09/21 05:08:36;;;;;;;3.63;1.73;;;;;;;23.39;100.00;99493.84;5015946;28;20092;-43
2023/09/21 05:11:04;;;;;;;4.43;1.83;;;;;;;23.39;100.00;99482.50;5013221;28;20128;-42
2023/09/21 05:13:31;;;;;;;4.00;1.55;;;;;;;23.39;100.00;99486.09;5017642;28;20132;-43
2023/09/21 05:16:00;;;;;;;3.40;1.58;;;;;;;23.40;100.00;99478.34;5019919;28;20056;-43
2023/09/21 05:18:27;;;;;;;6.68;1.55;;;;;;;23.41;100.00;99480.66;5023444;28;20396;-43
2023/09/21 05:20:53;;;;;;;3.42;1.60;;;;;;;23.40;100.00;99481.97;5013695;28;20054;-43
2023/09/21 05:23:20;;;;;;;4.60;1.90;;;;;;;23.41;100.00;99479.88;5021152;28;20052;-43
2023/09/21 05:25:47;;;;;;;4.25;1.80;;;;;;;23.41;100.00;99494.06;5011149;28;20041;-44
2023/09/21 05:28:16;;;;;;;3.92;1.70;;;;;;;23.38;100.00;99495.13;5012049;28;20139;-43
2023/09/21 05:30:43;;;;;;;4.00;1.90;;;;;;;23.40;100.00;99495.38;5014996;28;20147;-43
2023/09/21 05:33:10;;;;;;;3.80;1.70;;;;;;;23.39;100.00;99505.94;5010947;28;20578;-45
2023/09/21 05:35:37;;;;;;;3.97;1.60;;;;;;;23.41;100.00;99496.91;5013766;28;20053;-43
2023/09/21 05:38:05;;;;;;;2.40;1.45;;;;;;;23.42;100.00;99504.13;5012163;28;20052;-44
2023/09/21 05:40:33;;;;;;;3.55;1.63;;;;;;;23.41;100.00;99508.25;5014142;28;20088;-46
2023/09/21 05:42:59;;;;;;;3.92;1.65;;;;;;;23.40;100.00;99506.72;5011472;28;20229;-43
2023/09/21 05:45:26;;;;;;;2.60;1.55;;;;;;;23.40;100.00;99507.50;5014569;28;20041;-45
2023/09/21 05:47:53;;;;;;;4.95;1.70;;;;;;;23.40;100.00;99501.81;5011940;28;20046;-42
2023/09/21 05:50:19;;;;;;;2.65;1.67;;;;;;;23.41;100.00;99506.19;5015923;28;20809;-44
2023/09/21 05:52:46;;;;;;;4.32;1.75;;;;;;;23.41;100.00;99503.34;5019881;28;20111;-47
2023/09/21 05:55:13;;;;;;;4.10;1.65;;;;;;;23.41;100.00;99508.25;5019049;28;20773;-46
2023/09/21 05:57:39;;;;;;;2.80;1.77;;;;;;;23.41;100.00;99499.72;5011288;28;20120;-42
2023/09/21 06:00:08;;;;;;;6.28;1.80;;;;;;;23.41;100.00;99511.06;5011109;28;20555;-44
2023/09/21 06:02:35;;;;;;;2.92;1.65;;;;;;;23.41;100.00;99496.91;5016564;28;20054;-44
2023/09/21 06:05:02;;;;;;;5.82;1.80;;;;;;;23.41;100.00;99503.34;5017037;28;20562;-43
2023/09/21 06:07:28;;;;;;;2.08;1.30;;;;;;;23.40;100.00;99498.22;5010965;28;20054;-44
2023/09/21 06:09:55;;;;;;;3.47;1.88;;;;;;;23.41;100.00;99503.34;5011147;28;20128;-45
2023/09/21 06:12:24;;;;;;;3.17;1.73;;;;;;;23.41;100.00;99505.41;5010655;28;20049;-42
2023/09/21 06:14:52;;;;;;;3.08;1.75;;;;;;;23.40;100.00;99504.66;5010308;28;20082;-42
2023/09/21 06:17:18;;;;;;;2.55;1.52;;;;;;;23.37;100.00;99497.22;5014797;28;20056;-45
2023/09/21 06:19:45;;;;;;;5.43;1.70;;;;;;;23.37;100.00;99500.03;5013313;28;20111;-44
2023/09/21 06:22:12;;;;;;;3.38;1.70;;;;;;;23.38;100.00;99509.31;5009979;28;20104;-42
2023/09/21 06:24:42;;;;;;;3.10;1.45;;;;;;;23.37;100.00;99502.88;5010380;28;20064;-43
2023/09/21 06:27:08;;;;;;;3.13;1.65;;;;;;;23.35;100.00;99499.81;5010689;28;20117;-44
2023/09/21 06:29:35;;;;;;;4.78;1.70;;;;;;;23.35;100.00;99493.34;5010489;28;20054;-47
2023/09/21 06:32:07;;;;;;;2.90;1.50;;;;;;;23.37;100.00;99485.09;5011087;28;20087;-45
2023/09/21 06:34:42;;;;;;;3.10;1.70;;;;;;;23.44;100.00;99490.94;5011237;28;20049;-46
2023/09/21 06:37:13;;;;;;;3.75;1.95;;;;;;;23.26;100.00;99485.25;5010243;28;20100;-44
2023/09/21 06:39:40;;;;;;;4.13;2.08;;;;;;;23.25;100.00;99492.22;5011774;28;20137;-47
2023/09/21 06:42:07;;;;;;;7.00;2.25;;;;;;;23.17;100.00;99494.88;5021715;28;20047;-45
2023/09/21 06:44:34;;;;;;;5.50;2.30;;;;;;;23.26;100.00;99485.25;5020587;28;20073;-45
2023/09/21 06:47:01;;;;;;;6.32;2.17;;;;;;;23.18;100.00;99489.97;5026712;28;20046;-44
2023/09/21 06:49:28;;;;;;;5.43;2.13;;;;;;;23.11;100.00;99490.56;5029937;28;20056;-46
2023/09/21 06:51:56;;;;;;;5.22;2.20;;;;;;;22.87;100.00;99487.69;5022681;28;20041;-45
2023/09/21 06:54:23;;;;;;;3.85;1.90;;;;;;;22.91;100.00;99479.69;5018925;28;20096;-45
2023/09/21 06:56:51;;;;;;;6.22;2.30;;;;;;;22.89;100.00;99480.22;5018643;28;20156;-44
2023/09/21 06:59:18;;;;;;;6.68;1.92;;;;;;;23.09;100.00;99479.00;5029518;28;20049;-44
2023/09/21 07:01:44;;;;;;;5.30;1.92;;;;;;;22.78;100.00;99468.25;5029068;28;20103;-44
2023/09/21 07:04:11;;;;;;;4.72;1.98;;;;;;;23.05;100.00;99476.44;5023767;28;20068;-44
2023/09/21 07:06:39;;;;;;;5.45;2.00;;;;;;;23.14;100.00;99476.09;5024203;28;20141;-44
2023/09/21 07:09:06;;;;;;;5.00;2.38;;;;;;;23.10;100.00;99466.34;5031745;28;20100;-44
2023/09/21 07:11:33;;;;;;;3.90;1.90;;;;;;;23.14;100.00;99478.16;5018525;28;20103;-47
2023/09/21 07:14:00;;;;;;;5.25;2.25;;;;;;;22.97;100.00;99464.19;5015364;28;20136;-48
2023/09/21 07:16:27;;;;;;;8.45;2.20;;;;;;;23.20;100.00;99471.13;5013455;28;20501;-46
2023/09/21 07:18:54;;;;;;;5.97;2.28;;;;;;;23.06;100.00;99463.06;5009149;28;20092;-44
2023/09/21 07:21:20;;;;;;;5.68;2.35;;;;;;;23.12;100.00;99467.34;5016061;28;20049;-46
2023/09/21 07:23:47;;;;;;;6.30;1.90;;;;;;;23.17;100.00;99465.75;5010627;28;20073;-45
2023/09/21 07:26:14;;;;;;;3.63;2.03;;;;;;;23.14;100.00;99470.44;5014857;28;20476;-45
2023/09/21 07:28:40;;;;;;;4.97;1.90;;;;;;;23.11;100.00;99471.50;5008143;28;20107;-44
2023/09/21 07:31:09;;;;;;;4.80;1.90;;;;;;;23.13;100.00;99468.91;5009401;28;20046;-45
2023/09/21 07:33:36;;;;;;;9.15;3.20;;;;;;;23.10;100.00;99460.69;5009457;28;20041;-43
2023/09/21 07:36:03;;;;;;;6.65;1.95;;;;;;;23.21;100.00;99463.38;5015315;28;20041;-46
2023/09/21 07:38:30;;;;;;;9.93;1.85;;;;;;;23.18;100.00;99470.88;5009091;28;20050;-44
2023/09/21 07:40:57;;;;;;;7.78;2.10;;;;;;;23.14;100.00;99467.59;5008623;28;20532;-44
2023/09/21 07:43:24;;;;;;;11.35;2.63;;;;;;;23.18;100.00;99475.78;5008329;28;20074;-44
2023/09/21 07:45:50;;;;;;;6.65;2.15;;;;;;;23.13;100.00;99485.13;5019160;28;20054;-44
2023/09/21 07:48:17;;;;;;;10.98;2.55;;;;;;;23.12;100.00;99478.69;5005056;28;20045;-45
2023/09/21 07:50:44;;;;;;;18.42;2.75;;;;;;;23.14;100.00;99481.00;5010659;28;20138;-44
2023/09/21 07:53:11;;;;;;;7.40;2.50;;;;;;;23.12;100.00;99484.34;5009280;28;20439;-44
2023/09/21 07:55:37;;;;;;;6.93;2.17;;;;;;;23.10;100.00;99475.63;5007990;28;20586;-46
2023/09/21 07:58:04;;;;;;;5.32;2.50;;;;;;;23.12;100.00;99475.84;5015292;28;20053;-44
2023/09/21 08:00:31;;;;;;;11.05;3.38;;;;;;;23.11;100.00;99479.22;5014398;28;20060;-49
2023/09/21 08:02:58;;;;;;;6.55;2.15;;;;;;;23.13;100.00;99483.06;5014153;28;20056;-47
2023/09/21 08:05:26;;;;;;;5.85;2.00;;;;;;;23.24;100.00;99494.28;5022648;28;20500;-43
2023/09/21 08:07:53;;;;;;;6.63;2.58;;;;;;;23.29;100.00;99490.59;5014386;28;20132;-45
2023/09/21 08:10:20;;;;;;;6.20;2.50;;;;;;;23.32;100.00;99488.78;5013586;28;20092;-47
2023/09/21 08:12:47;;;;;;;8.30;2.55;;;;;;;23.23;100.00;99480.63;5018087;28;20096;-44
2023/09/21 08:15:15;;;;;;;5.25;2.17;;;;;;;23.25;100.00;99478.03;5015458;28;20057;-45
2023/09/21 08:17:42;;;;;;;8.63;2.30;;;;;;;23.20;100.00;99479.63;5015126;28;20496;-44
2023/09/21 08:20:09;;;;;;;10.10;2.55;;;;;;;23.24;100.00;99480.09;5025837;28;20498;-44
2023/09/21 08:22:37;;;;;;;8.20;2.40;;;;;;;23.27;100.00;99489.59;5023907;28;20493;-46
2023/09/21 08:25:06;;;;;;;8.68;2.88;;;;;;;23.35;100.00;99484.84;5028078;28;20080;-46
2023/09/21 08:27:33;;;;;;;10.02;2.38;;;;;;;23.32;100.00;99483.09;5028032;28;20057;-45
2023/09/21 08:30:03;;;;;;;6.03;2.20;;;;;;;23.30;100.00;99491.38;5027867;28;20510;-46
2023/09/21 08:32:30;;;;;;;7.25;2.45;;;;;;;23.28;100.00;99489.06;5008852;28;20579;-45
2023/09/21 08:34:57;;;;;;;5.88;2.13;;;;;;;23.30;100.00;99494.97;5008863;28;20050;-45
2023/09/21 08:37:24;;;;;;;8.68;2.30;;;;;;;23.27;100.00;99487.53;5009345;28;20049;-46
2023/09/21 08:39:50;;;;;;;9.32;2.50;;;;;;;23.33;100.00;99495.97;5010408;28;20054;-46
2023/09/21 08:42:17;;;;;;;5.93;2.08;;;;;;;23.35;100.00;99501.88;5014373;28;20466;-44
2023/09/21 08:44:47;;;;;;;7.47;2.80;;;;;;;23.39;100.00;99505.19;5015002;28;20248;-47
2023/09/21 08:47:14;;;;;;;5.97;2.47;;;;;;;23.37;100.00;99500.03;5013850;28;20504;-46
2023/09/21 08:50:01;;;;;;;;;;;;;;;23.38;100.00;99497.97;5012097;28;20065;-45
2023/09/21 08:52:31;;;;;;;10.55;2.97;;;;;;;23.26;100.00;99505.09;5009531;28;20019;-44
2023/09/21 08:54:58;;;;;;;6.38;2.38;;;;;;;23.21;100.00;99495.34;5015097;28;20109;-48
2023/09/21 08:57:25;;;;;;;6.80;3.10;;;;;;;23.22;100.00;99496.88;5028417;28;20034;-43
2023/09/21 08:59:55;;;;;;;6.85;2.65;;;;;;;23.23;100.00;99506.94;5027020;28;20053;-45
2023/09/21 09:02:23;;;;;;;6.70;2.70;;;;;;;23.24;100.00;99507.69;5023114;28;20517;-43
2023/09/21 09:04:51;;;;;;;5.90;2.53;;;;;;;23.27;100.00;99506.59;5016348;28;20088;-43
2023/09/21 09:07:18;;;;;;;6.82;2.17;;;;;;;23.31;100.00;99510.69;5004999;28;20050;-46
2023/09/21 09:09:46;;;;;;;8.27;2.53;;;;;;;23.36;100.00;99512.66;5001496;28;20050;-44
2023/09/21 09:12:23;;;;;;;5.70;2.20;;;;;;;23.35;100.00;99518.88;5003079;28;21724;-43
2023/09/21 09:14:51;;;;;;;5.53;2.10;;;;;;;23.45;100.00;99512.31;5003751;28;20267;-43
2023/09/21 09:17:18;;;;;;;11.90;2.35;;;;;;;23.51;100.00;99512.25;5018210;28;20550;-45
2023/09/21 09:19:48;;;;;;;7.03;2.70;;;;;;;23.46;100.00;99525.19;5010294;28;20525;-45
2023/09/21 09:22:15;;;;;;;11.70;2.60;;;;;;;23.41;100.00;99514.69;5009302;28;20132;-43
2023/09/21 09:24:47;;;;;;;5.68;2.15;;;;;;;23.39;100.00;99519.38;5011408;28;20054;-43
2023/09/21 09:27:14;;;;;;;8.70;2.50;;;;;;;23.40;100.00;99523.72;5023503;28;20068;-46
2023/09/21 09:29:50;;;;;;;5.85;2.10;;;;;;;23.39;100.00;99513.69;5013505;28;20565;-43
2023/09/21 09:32:21;;;;;;;5.55;2.35;;;;;;;23.41;100.00;99514.69;5011956;28;20056;-43
2023/09/21 09:34:47;;;;;;;4.88;2.15;;;;;;;23.42;100.00;99515.47;5015185;28;20108;-42
2023/09/21 09:37:15;;;;;;;7.60;2.00;;;;;;;23.41;100.00;99522.41;5009802;28;20137;-43
2023/09/21 09:39:45;;;;;;;6.03;2.10;;;;;;;23.42;100.00;99521.13;5005611;28;20141;-45
2023/09/21 09:42:13;;;;;;;6.93;2.13;;;;;;;23.44;100.00;99521.34;5008302;28;20050;-45
2023/09/21 09:44:46;;;;;;;4.18;2.13;;;;;;;23.45;100.00;99522.88;5020177;28;20067;-43
2023/09/21 09:47:16;;;;;;;5.40;2.13;;;;;;;23.46;100.00;99510.25;5010196;28;20555;-46
2023/09/21 09:49:46;;;;;;;3.63;2.00;;;;;;;23.47;100.00;99520.28;5016518;28;20049;-43
2023/09/21 09:52:13;;;;;;;6.80;2.10;;;;;;;23.45;100.00;99515.16;5011916;28;20494;-43
2023/09/21 09:54:41;;;;;;;8.45;2.67;;;;;;;23.45;100.00;99517.22;5012760;28;20056;-44
2023/09/21 09:57:13;;;;;;;9.02;2.10;;;;;;;23.45;100.00;99523.66;5014383;28;20053;-46
2023/09/21 09:59:41;;;;;;;5.05;1.85;;;;;;;23.48;100.00;99513.31;5016840;28;20092;-45
2023/09/21 10:02:13;;;;;;;3.88;1.90;;;;;;;23.47;100.00;99520.28;5012010;28;20127;-43
2023/09/21 10:04:40;;;;;;;6.03;2.40;;;;;;;23.47;100.00;99517.44;5015317;28;20427;-46
2023/09/21 10:07:08;;;;;;;8.20;2.47;;;;;;;23.51;100.00;99515.84;5015277;28;20699;-45
2023/09/21 10:09:37;;;;;;;3.97;1.98;;;;;;;23.52;100.00;99511.69;5017079;28;20049;-44
2023/09/21 10:12:04;;;;;;;3.35;1.83;;;;;;;23.50;100.00;99517.16;5019544;28;20054;-45
2023/09/21 10:14:35;;;;;;;5.68;2.22;;;;;;;23.51;100.00;99510.19;5012162;28;20077;-45
2023/09/21 10:17:04;;;;;;;3.97;1.85;;;;;;;23.52;100.00;99513.78;5013148;28;20041;-46
2023/09/21 10:19:38;;;;;;;6.25;1.92;;;;;;;23.60;100.00;99506.19;5012620;28;20540;-45
2023/09/21 10:22:21;;;;;;;9.47;2.67;;;;;;;23.63;100.00;99510.84;5018944;28;20053;-44
2023/09/21 10:24:54;;;;;;;6.88;2.05;;;;;;;23.56;100.00;99502.91;5011253;28;20056;-47
2023/09/21 10:27:24;;;;;;;4.68;1.98;;;;;;;23.55;100.00;99504.97;5019549;28;20041;-43
2023/09/21 10:29:55;;;;;;;7.03;2.53;;;;;;;23.55;100.00;99504.19;5013863;28;20076;-44
2023/09/21 10:32:26;;;;;;;4.03;2.00;;;;;;;23.53;100.00;99507.56;5017000;28;20119;-44
2023/09/21 10:34:54;;;;;;;8.85;2.10;;;;;;;23.53;100.00;99496.22;5014955;28;20054;-43
2023/09/21 10:37:26;;;;;;;4.43;1.90;;;;;;;23.52;100.00;99500.34;5013030;28;20041;-43
2023/09/21 10:39:59;;;;;;;4.03;1.98;;;;;;;23.52;100.00;99496.78;5009164;28;20512;-43
2023/09/21 10:42:33;;;;;;;5.53;1.90;;;;;;;23.54;100.00;99500.59;5018126;28;20046;-43
2023/09/21 10:45:10;;;;;;;3.25;1.58;;;;;;;23.54;100.00;99485.63;5010568;28;20132;-43
2023/09/21 10:47:38;;;;;;;4.35;1.90;;;;;;;23.55;100.00;99481.50;5021641;28;20087;-43
2023/09/21 10:50:13;;;;;;;5.45;2.10;;;;;;;23.64;100.00;99487.59;5009635;28;20046;-46
2023/09/21 10:52:42;;;;;;;4.32;2.00;;;;;;;23.58;100.00;99478.38;5012752;28;20057;-42
2023/09/21 10:55:11;;;;;;;6.63;2.97;;;;;;;23.62;100.00;99483.75;5020707;28;20049;-45
2023/09/21 10:57:40;;;;;;;7.68;1.63;;;;;;;23.66;100.00;99476.47;5018391;28;20145;-43
2023/09/21 11:00:08;;;;;;;5.35;1.98;;;;;;;23.64;100.00;99481.94;5013107;28;20045;-45
2023/09/21 11:02:40;;;;;;;6.43;2.00;;;;;;;23.64;100.00;99469.81;5018379;28;20062;-44
2023/09/21 11:05:08;;;;;;;4.60;2.05;;;;;;;23.65;100.00;99468.50;5014722;28;20066;-43
2023/09/21 11:07:36;;;;;;;3.65;1.88;;;;;;;23.64;100.00;99475.47;5012049;28;20044;-44
2023/09/21 11:10:06;;;;;;;4.90;2.05;;;;;;;23.67;100.00;99472.34;5011793;28;20046;-43
2023/09/21 11:12:34;;;;;;;5.80;1.52;;;;;;;23.67;100.00;99471.56;5015457;28;20131;-44
2023/09/21 11:15:03;;;;;;;7.97;2.00;;;;;;;23.62;100.00;99461.81;5018134;28;20086;-44
2023/09/21 11:17:30;;;;;;;12.90;2.38;;;;;;;23.64;100.00;99455.63;5016232;28;20488;-43
2023/09/21 11:19:57;;;;;;;10.40;2.28;;;;;;;23.67;100.00;99463.06;5015670;28;20152;-44
2023/09/21 11:22:24;;;;;;;7.40;1.95;;;;;;;23.63;100.00;99471.88;5020005;28;20057;-42
2023/09/21 11:24:51;;;;;;;8.55;2.47;;;;;;;23.66;100.00;99462.28;5014924;28;20077;-46
2023/09/21 11:27:24;;;;;;;5.80;2.20;;;;;;;23.57;100.00;99464.72;5008257;28;20161;-46
2023/09/21 11:29:51;;;;;;;7.38;2.38;;;;;;;23.55;100.00;99476.59;5014009;28;20053;-45